sensor_id;sensor_type;location;lat;lon;timestamp;pressure;altitude;pressure_sealevel;temperature;humidity
28588;BME280;15787;49.662;10.162;2024-03-08T00:02:18;99307.72;;;1.92;82.90
28588;BME280;15787;49.662;10.162;2024-03-08T00:04:53;99302.25;;;1.96;82.61
28588;BME280;15787;49.662;10.162;2024-03-08T00:07:27;99299.66;;;2.03;82.48
28588;BME280;15787;49.662;10.162;2024-03-08T00:09:59;99309.28;;;2.16;81.75
28588;BME280;15787;49.662;10.162;2024-03-08T00:12:33;99298.28;;;1.71;82.65
28588;BME280;15787;49.662;10.162;2024-03-08T00:15:06;99295.06;;;1.88;83.00
28588;BME280;15787;49.662;10.162;2024-03-08T00:17:40;99295.81;;;2.11;82.38
28588;BME280;15787;49.662;10.162;2024-03-08T00:20:15;99302.38;;;2.26;81.88
28588;BME280;15787;49.662;10.162;2024-03-08T00:22:51;99299.78;;;1.87;81.85
28588;BME280;15787;49.662;10.162;2024-03-08T00:25:24;99304.06;;;1.43;82.99
28588;BME280;15787;49.662;10.162;2024-03-08T00:27:58;99299.31;;;1.63;83.95
28588;BME280;15787;49.662;10.162;2024-03-08T00:30:32;99300.41;;;1.58;83.86
28588;BME280;15787;49.662;10.162;2024-03-08T00:33:05;99301.66;;;1.83;84.22
28588;BME280;15787;49.662;10.162;2024-03-08T00:35:40;99297.22;;;1.56;83.98
28588;BME280;15787;49.662;10.162;2024-03-08T00:38:13;99281.75;;;1.93;83.54
28588;BME280;15787;49.662;10.162;2024-03-08T00:40:46;99294.25;;;1.87;83.20
28588;BME280;15787;49.662;10.162;2024-03-08T00:43:19;99295.28;;;1.79;83.53
28588;BME280;15787;49.662;10.162;2024-03-08T00:45:52;99290.63;;;1.61;83.05
28588;BME280;15787;49.662;10.162;2024-03-08T00:48:25;99288.13;;;1.33;84.58
28588;BME280;15787;49.662;10.162;2024-03-08T00:51:01;99283.25;;;1.65;84.71
28588;BME280;15787;49.662;10.162;2024-03-08T00:53:35;99281.72;;;1.25;85.33
28588;BME280;15787;49.662;10.162;2024-03-08T00:56:08;99285.47;;;1.37;85.76
28588;BME280;15787;49.662;10.162;2024-03-08T00:58:42;99286.31;;;1.41;86.11
28588;BME280;15787;49.662;10.162;2024-03-08T01:01:15;99279.97;;;1.37;85.67
28588;BME280;15787;49.662;10.162;2024-03-08T01:03:49;99269.69;;;1.34;86.03
28588;BME280;15787;49.662;10.162;2024-03-08T01:06:23;99275.69;;;1.39;86.37
28588;BME280;15787;49.662;10.162;2024-03-08T01:08:56;99278.19;;;1.06;87.44
28588;BME280;15787;49.662;10.162;2024-03-08T01:11:30;99269.00;;;0.98;88.21
28588;BME280;15787;49.662;10.162;2024-03-08T01:14:03;99268.63;;;1.00;88.78
28588;BME280;15787;49.662;10.162;2024-03-08T01:16:36;99258.28;;;0.93;89.58
28588;BME280;15787;49.662;10.162;2024-03-08T01:19:10;99257.91;;;1.14;90.11
28588;BME280;15787;49.662;10.162;2024-03-08T01:21:44;99253.44;;;1.06;90.02
28588;BME280;15787;49.662;10.162;2024-03-08T01:24:19;99261.59;;;1.02;90.18
28588;BME280;15787;49.662;10.162;2024-03-08T01:26:53;99253.22;;;0.95;90.55
28588;BME280;15787;49.662;10.162;2024-03-08T01:29:27;99247.84;;;1.02;90.96
28588;BME280;15787;49.662;10.162;2024-03-08T01:32:01;99249.09;;;1.05;91.00
28588;BME280;15787;49.662;10.162;2024-03-08T01:34:35;99242.06;;;1.07;91.27
28588;BME280;15787;49.662;10.162;2024-03-08T01:37:09;99236.25;;;1.12;91.23
28588;BME280;15787;49.662;10.162;2024-03-08T01:39:42;99224.63;;;1.19;91.13
28588;BME280;15787;49.662;10.162;2024-03-08T01:42:16;99240.56;;;1.33;90.79
28588;BME280;15787;49.662;10.162;2024-03-08T01:44:49;99224.97;;;1.17;91.03
28588;BME280;15787;49.662;10.162;2024-03-08T01:47:23;99230.53;;;1.21;90.53
28588;BME280;15787;49.662;10.162;2024-03-08T01:49:58;99224.91;;;1.14;90.79
28588;BME280;15787;49.662;10.162;2024-03-08T01:52:33;99219.03;;;1.35;89.92
28588;BME280;15787;49.662;10.162;2024-03-08T01:55:08;99218.41;;;1.45;89.93
28588;BME280;15787;49.662;10.162;2024-03-08T01:57:41;99206.97;;;1.43;89.63
28588;BME280;15787;49.662;10.162;2024-03-08T02:00:16;99210.19;;;1.25;88.76
28588;BME280;15787;49.662;10.162;2024-03-08T02:02:49;99210.38;;;1.36;89.24
28588;BME280;15787;49.662;10.162;2024-03-08T02:05:24;99194.50;;;1.49;88.59
28588;BME280;15787;49.662;10.162;2024-03-08T02:07:58;99204.38;;;1.31;88.09
28588;BME280;15787;49.662;10.162;2024-03-08T02:10:35;99200.09;;;1.56;87.44
28588;BME280;15787;49.662;10.162;2024-03-08T02:13:09;99202.94;;;1.37;87.48
28588;BME280;15787;49.662;10.162;2024-03-08T02:15:53;99196.28;;;0.96;87.62
28588;BME280;15787;49.662;10.162;2024-03-08T02:18:28;99188.78;;;1.15;89.24
28588;BME280;15787;49.662;10.162;2024-03-08T02:21:05;99201.03;;;1.41;89.16
28588;BME280;15787;49.662;10.162;2024-03-08T02:23:38;99190.81;;;1.18;89.19
28588;BME280;15787;49.662;10.162;2024-03-08T02:26:13;99184.53;;;1.41;89.25
28588;BME280;15787;49.662;10.162;2024-03-08T02:28:46;99180.88;;;0.91;89.42
28588;BME280;15787;49.662;10.162;2024-03-08T02:31:21;99186.63;;;1.05;90.30
28588;BME280;15787;49.662;10.162;2024-03-08T02:33:54;99185.53;;;1.10;90.16
28588;BME280;15787;49.662;10.162;2024-03-08T02:36:29;99179.94;;;1.25;90.18
28588;BME280;15787;49.662;10.162;2024-03-08T02:39:06;99175.13;;;1.19;89.32
28588;BME280;15787;49.662;10.162;2024-03-08T02:41:40;99187.53;;;0.90;89.61
28588;BME280;15787;49.662;10.162;2024-03-08T02:44:14;99174.84;;;1.27;89.55
28588;BME280;15787;49.662;10.162;2024-03-08T02:46:48;99172.16;;;1.08;89.27
28588;BME280;15787;49.662;10.162;2024-03-08T02:49:22;99171.06;;;1.13;89.73
28588;BME280;15787;49.662;10.162;2024-03-08T02:51:57;99173.00;;;1.12;89.44
28588;BME280;15787;49.662;10.162;2024-03-08T02:54:30;99172.50;;;1.07;89.73
28588;BME280;15787;49.662;10.162;2024-03-08T02:57:04;99168.50;;;1.01;89.62
28588;BME280;15787;49.662;10.162;2024-03-08T02:59:39;99170.97;;;0.87;90.23
28588;BME280;15787;49.662;10.162;2024-03-08T03:02:13;99166.22;;;0.84;90.56
28588;BME280;15787;49.662;10.162;2024-03-08T03:04:48;99169.72;;;1.03;90.98
28588;BME280;15787;49.662;10.162;2024-03-08T03:07:23;99162.63;;;1.02;90.92
28588;BME280;15787;49.662;10.162;2024-03-08T03:09:59;99154.38;;;0.60;91.13
28588;BME280;15787;49.662;10.162;2024-03-08T03:12:33;99159.50;;;0.81;92.11
28588;BME280;15787;49.662;10.162;2024-03-08T03:15:21;99156.75;;;0.62;92.69
28588;BME280;15787;49.662;10.162;2024-03-08T03:17:58;99156.75;;;0.81;92.33
28588;BME280;15787;49.662;10.162;2024-03-08T03:20:33;99151.03;;;0.71;92.36
28588;BME280;15787;49.662;10.162;2024-03-08T03:23:13;99149.34;;;0.85;92.49
28588;BME280;15787;49.662;10.162;2024-03-08T03:25:52;99147.34;;;1.05;91.48
28588;BME280;15787;49.662;10.162;2024-03-08T03:28:28;99149.03;;;0.90;91.02
28588;BME280;15787;49.662;10.162;2024-03-08T03:31:03;99138.19;;;0.97;91.26
28588;BME280;15787;49.662;10.162;2024-03-08T03:33:40;99135.22;;;0.87;91.01
28588;BME280;15787;49.662;10.162;2024-03-08T03:36:14;99126.63;;;0.88;90.67
28588;BME280;15787;49.662;10.162;2024-03-08T03:38:49;99130.47;;;0.84;90.71
28588;BME280;15787;49.662;10.162;2024-03-08T03:41:24;99133.94;;;0.81;90.11
28588;BME280;15787;49.662;10.162;2024-03-08T03:43:56;99132.34;;;0.80;90.44
28588;BME280;15787;49.662;10.162;2024-03-08T03:46:30;99134.16;;;0.72;90.29
28588;BME280;15787;49.662;10.162;2024-03-08T03:49:04;99123.19;;;0.72;90.78
28588;BME280;15787;49.662;10.162;2024-03-08T03:51:37;99117.06;;;0.40;90.71
28588;BME280;15787;49.662;10.162;2024-03-08T03:54:12;99116.03;;;0.68;91.12
28588;BME280;15787;49.662;10.162;2024-03-08T03:56:46;99124.69;;;0.70;91.67
28588;BME280;15787;49.662;10.162;2024-03-08T03:59:23;99122.75;;;0.51;91.79
28588;BME280;15787;49.662;10.162;2024-03-08T04:01:56;99113.75;;;0.50;92.09
28588;BME280;15787;49.662;10.162;2024-03-08T04:04:30;99117.94;;;0.25;92.39
28588;BME280;15787;49.662;10.162;2024-03-08T04:07:03;99110.06;;;0.43;92.84
28588;BME280;15787;49.662;10.162;2024-03-08T04:09:40;99109.72;;;0.25;93.86
28588;BME280;15787;49.662;10.162;2024-03-08T04:12:13;99105.41;;;0.47;94.70
28588;BME280;15787;49.662;10.162;2024-03-08T04:14:47;99104.78;;;0.34;94.99
28588;BME280;15787;49.662;10.162;2024-03-08T04:17:20;99107.59;;;0.38;95.98
28588;BME280;15787;49.662;10.162;2024-03-08T04:19:54;99107.94;;;0.36;96.39
28588;BME280;15787;49.662;10.162;2024-03-08T04:22:27;99104.34;;;0.32;96.39
28588;BME280;15787;49.662;10.162;2024-03-08T04:25:02;99102.09;;;0.19;97.03
28588;BME280;15787;49.662;10.162;2024-03-08T04:27:35;99106.81;;;0.37;97.68
28588;BME280;15787;49.662;10.162;2024-03-08T04:30:10;99102.41;;;0.33;97.54
28588;BME280;15787;49.662;10.162;2024-03-08T04:32:44;99096.47;;;0.31;97.17
28588;BME280;15787;49.662;10.162;2024-03-08T04:35:17;99084.53;;;0.42;97.44
28588;BME280;15787;49.662;10.162;2024-03-08T04:37:52;99091.63;;;0.24;97.40
28588;BME280;15787;49.662;10.162;2024-03-08T04:40:27;99087.63;;;0.41;97.29
28588;BME280;15787;49.662;10.162;2024-03-08T04:43:00;99089.69;;;0.25;98.09
28588;BME280;15787;49.662;10.162;2024-03-08T04:45:33;99095.88;;;0.22;98.16
28588;BME280;15787;49.662;10.162;2024-03-08T04:48:07;99090.06;;;0.65;98.23
28588;BME280;15787;49.662;10.162;2024-03-08T04:50:42;99088.50;;;0.45;97.97
28588;BME280;15787;49.662;10.162;2024-03-08T04:53:16;99097.56;;;0.26;98.30
28588;BME280;15787;49.662;10.162;2024-03-08T04:55:52;99096.59;;;0.19;98.45
28588;BME280;15787;49.662;10.162;2024-03-08T04:58:25;99093.81;;;0.15;99.15
28588;BME280;15787;49.662;10.162;2024-03-08T05:00:58;99097.75;;;0.37;98.97
28588;BME280;15787;49.662;10.162;2024-03-08T05:03:31;99094.38;;;0.05;99.09
28588;BME280;15787;49.662;10.162;2024-03-08T05:06:04;99087.81;;;0.10;99.72
28588;BME280;15787;49.662;10.162;2024-03-08T05:08:37;99091.78;;;0.12;99.61
28588;BME280;15787;49.662;10.162;2024-03-08T05:11:11;99086.91;;;0.44;99.80
28588;BME280;15787;49.662;10.162;2024-03-08T05:13:46;99089.16;;;0.38;99.19
28588;BME280;15787;49.662;10.162;2024-03-08T05:16:20;99098.19;;;0.39;99.03
28588;BME280;15787;49.662;10.162;2024-03-08T05:18:59;99092.84;;;0.46;98.90
28588;BME280;15787;49.662;10.162;2024-03-08T05:21:33;99088.66;;;0.52;98.98
28588;BME280;15787;49.662;10.162;2024-03-08T05:24:12;99085.09;;;0.51;98.06
28588;BME280;15787;49.662;10.162;2024-03-08T05:26:48;99089.31;;;0.26;98.34
28588;BME280;15787;49.662;10.162;2024-03-08T05:29:22;99094.34;;;0.43;98.61
28588;BME280;15787;49.662;10.162;2024-03-08T05:31:56;99086.28;;;0.31;98.26
28588;BME280;15787;49.662;10.162;2024-03-08T05:34:30;99083.22;;;0.36;97.99
28588;BME280;15787;49.662;10.162;2024-03-08T05:37:03;99075.38;;;0.35;98.52
28588;BME280;15787;49.662;10.162;2024-03-08T05:39:36;99083.19;;;0.33;97.99
28588;BME280;15787;49.662;10.162;2024-03-08T05:42:11;99082.03;;;0.15;98.74
28588;BME280;15787;49.662;10.162;2024-03-08T05:44:44;99076.25;;;0.20;99.27
28588;BME280;15787;49.662;10.162;2024-03-08T05:47:17;99073.06;;;0.18;98.49
28588;BME280;15787;49.662;10.162;2024-03-08T05:49:50;99081.88;;;0.27;97.66
28588;BME280;15787;49.662;10.162;2024-03-08T05:52:25;99075.22;;;0.28;97.83
28588;BME280;15787;49.662;10.162;2024-03-08T05:54:58;99066.53;;;0.26;98.32
28588;BME280;15787;49.662;10.162;2024-03-08T05:57:33;99065.41;;;0.27;98.67
28588;BME280;15787;49.662;10.162;2024-03-08T06:00:07;99070.13;;;0.49;99.10
28588;BME280;15787;49.662;10.162;2024-03-08T06:02:42;99061.56;;;0.31;99.27
28588;BME280;15787;49.662;10.162;2024-03-08T06:05:16;99063.00;;;0.44;99.27
28588;BME280;15787;49.662;10.162;2024-03-08T06:07:50;99059.19;;;0.30;99.39
28588;BME280;15787;49.662;10.162;2024-03-08T06:10:25;99061.56;;;0.31;99.62
28588;BME280;15787;49.662;10.162;2024-03-08T06:13:13;99063.88;;;0.29;99.73
28588;BME280;15787;49.662;10.162;2024-03-08T06:15:46;99055.13;;;0.43;100.00
28588;BME280;15787;49.662;10.162;2024-03-08T06:18:19;99060.25;;;0.44;99.96
28588;BME280;15787;49.662;10.162;2024-03-08T06:20:53;99064.59;;;0.45;99.76
28588;BME280;15787;49.662;10.162;2024-03-08T06:23:27;99064.22;;;0.47;100.00
28588;BME280;15787;49.662;10.162;2024-03-08T06:26:00;99058.00;;;0.50;100.00
28588;BME280;15787;49.662;10.162;2024-03-08T06:28:38;99060.75;;;0.50;100.00
28588;BME280;15787;49.662;10.162;2024-03-08T06:31:11;99055.50;;;0.64;100.00
28588;BME280;15787;49.662;10.162;2024-03-08T06:33:44;99052.28;;;0.58;100.00
28588;BME280;15787;49.662;10.162;2024-03-08T06:36:17;99058.19;;;0.60;100.00
28588;BME280;15787;49.662;10.162;2024-03-08T06:38:53;99058.75;;;0.70;100.00
28588;BME280;15787;49.662;10.162;2024-03-08T06:41:33;99051.81;;;0.76;100.00
28588;BME280;15787;49.662;10.162;2024-03-08T06:44:10;99050.94;;;0.94;100.00
28588;BME280;15787;49.662;10.162;2024-03-08T06:46:43;99057.28;;;0.98;100.00
28588;BME280;15787;49.662;10.162;2024-03-08T06:49:16;99054.59;;;1.02;100.00
28588;BME280;15787;49.662;10.162;2024-03-08T06:51:49;99059.03;;;1.10;100.00
28588;BME280;15787;49.662;10.162;2024-03-08T06:54:23;99054.28;;;1.30;99.90
28588;BME280;15787;49.662;10.162;2024-03-08T06:56:56;99057.13;;;1.37;99.29
28588;BME280;15787;49.662;10.162;2024-03-08T06:59:34;99047.19;;;1.55;98.72
28588;BME280;15787;49.662;10.162;2024-03-08T07:02:11;99053.78;;;1.76;98.06
28588;BME280;15787;49.662;10.162;2024-03-08T07:04:45;99060.06;;;1.77;97.48
28588;BME280;15787;49.662;10.162;2024-03-08T07:07:25;99055.94;;;1.90;96.78
28588;BME280;15787;49.662;10.162;2024-03-08T07:10:01;99050.25;;;2.09;96.35
28588;BME280;15787;49.662;10.162;2024-03-08T07:12:31;99049.25;;;2.24;95.82
28588;BME280;15787;49.662;10.162;2024-03-08T07:15:07;99050.72;;;2.15;94.78
28588;BME280;15787;49.662;10.162;2024-03-08T07:17:53;99055.38;;;2.40;94.92
28588;BME280;15787;49.662;10.162;2024-03-08T07:20:41;99049.22;;;2.54;94.18
28588;BME280;15787;49.662;10.162;2024-03-08T07:23:15;99055.63;;;2.65;93.72
28588;BME280;15787;49.662;10.162;2024-03-08T07:26:10;99041.72;;;2.91;93.16
28588;BME280;15787;49.662;10.162;2024-03-08T07:28:47;99041.31;;;2.93;92.38
28588;BME280;15787;49.662;10.162;2024-03-08T07:31:21;99039.59;;;3.22;91.93
28588;BME280;15787;49.662;10.162;2024-03-08T07:34:05;99042.66;;;3.13;90.48
28588;BME280;15787;49.662;10.162;2024-03-08T07:36:39;99038.91;;;3.35;90.17
28588;BME280;15787;49.662;10.162;2024-03-08T07:39:12;99030.28;;;3.44;89.89
28588;BME280;15787;49.662;10.162;2024-03-08T07:41:45;99032.22;;;3.36;88.66
28588;BME280;15787;49.662;10.162;2024-03-08T07:44:20;99033.63;;;3.74;88.36
28588;BME280;15787;49.662;10.162;2024-03-08T07:46:54;99037.59;;;3.73;87.41
28588;BME280;15787;49.662;10.162;2024-03-08T07:49:30;99024.91;;;3.65;87.33
28588;BME280;15787;49.662;10.162;2024-03-08T07:52:04;99027.78;;;3.82;86.37
28588;BME280;15787;49.662;10.162;2024-03-08T07:54:39;99034.50;;;3.85;86.07
28588;BME280;15787;49.662;10.162;2024-03-08T07:57:13;99019.22;;;4.09;85.69
28588;BME280;15787;49.662;10.162;2024-03-08T07:59:47;99021.84;;;3.80;84.64
28588;BME280;15787;49.662;10.162;2024-03-08T08:02:22;99012.56;;;4.17;85.50
28588;BME280;15787;49.662;10.162;2024-03-08T08:04:56;99005.47;;;4.33;84.69
28588;BME280;15787;49.662;10.162;2024-03-08T08:07:31;99016.59;;;4.51;84.18
28588;BME280;15787;49.662;10.162;2024-03-08T08:10:05;99006.31;;;4.52;83.34
28588;BME280;15787;49.662;10.162;2024-03-08T08:12:39;99003.56;;;4.52;83.46
28588;BME280;15787;49.662;10.162;2024-03-08T08:15:13;98996.47;;;4.72;82.74
28588;BME280;15787;49.662;10.162;2024-03-08T08:17:48;98994.91;;;4.88;82.44
28588;BME280;15787;49.662;10.162;2024-03-08T08:20:22;98988.59;;;4.88;81.52
28588;BME280;15787;49.662;10.162;2024-03-08T08:22:55;98990.56;;;5.05;81.21
28588;BME280;15787;49.662;10.162;2024-03-08T08:25:30;98989.00;;;5.07;81.49
28588;BME280;15787;49.662;10.162;2024-03-08T08:28:06;98982.66;;;5.21;80.91
28588;BME280;15787;49.662;10.162;2024-03-08T08:30:40;98965.22;;;5.42;80.62
28588;BME280;15787;49.662;10.162;2024-03-08T08:33:15;98966.44;;;5.27;80.34
28588;BME280;15787;49.662;10.162;2024-03-08T08:35:48;98964.06;;;5.22;79.74
28588;BME280;15787;49.662;10.162;2024-03-08T08:38:25;98954.09;;;5.59;79.58
28588;BME280;15787;49.662;10.162;2024-03-08T08:40:58;98954.47;;;5.68;78.90
28588;BME280;15787;49.662;10.162;2024-03-08T08:43:32;98946.97;;;5.69;78.17
28588;BME280;15787;49.662;10.162;2024-03-08T08:46:08;98949.66;;;5.90;77.93
28588;BME280;15787;49.662;10.162;2024-03-08T08:48:42;98958.41;;;5.78;77.43
28588;BME280;15787;49.662;10.162;2024-03-08T08:51:16;98948.69;;;6.32;77.82
28588;BME280;15787;49.662;10.162;2024-03-08T08:53:49;98940.38;;;6.28;76.53
28588;BME280;15787;49.662;10.162;2024-03-08T08:56:22;98940.28;;;6.43;76.47
28588;BME280;15787;49.662;10.162;2024-03-08T08:58:57;98940.22;;;6.53;75.53
28588;BME280;15787;49.662;10.162;2024-03-08T09:01:31;98938.66;;;6.49;75.73
28588;BME280;15787;49.662;10.162;2024-03-08T09:04:06;98923.25;;;6.95;75.62
28588;BME280;15787;49.662;10.162;2024-03-08T09:06:40;98928.22;;;7.15;74.14
28588;BME280;15787;49.662;10.162;2024-03-08T09:09:14;98921.94;;;7.07;74.22
28588;BME280;15787;49.662;10.162;2024-03-08T09:11:49;98919.22;;;7.00;73.10
28588;BME280;15787;49.662;10.162;2024-03-08T09:14:23;98921.56;;;7.05;72.81
28588;BME280;15787;49.662;10.162;2024-03-08T09:16:58;98916.75;;;6.65;71.75
28588;BME280;15787;49.662;10.162;2024-03-08T09:19:32;98918.84;;;7.02;72.34
28588;BME280;15787;49.662;10.162;2024-03-08T09:22:05;98911.22;;;7.09;70.93
28588;BME280;15787;49.662;10.162;2024-03-08T09:24:38;98906.75;;;6.78;71.25
28588;BME280;15787;49.662;10.162;2024-03-08T09:27:12;98905.09;;;7.25;71.06
28588;BME280;15787;49.662;10.162;2024-03-08T09:29:46;98911.72;;;7.72;69.90
28588;BME280;15787;49.662;10.162;2024-03-08T09:32:19;98901.56;;;7.58;69.41
28588;BME280;15787;49.662;10.162;2024-03-08T09:34:55;98892.09;;;7.86;70.04
28588;BME280;15787;49.662;10.162;2024-03-08T09:37:29;98897.94;;;7.64;68.60
28588;BME280;15787;49.662;10.162;2024-03-08T09:40:04;98891.16;;;7.96;68.08
28588;BME280;15787;49.662;10.162;2024-03-08T09:42:42;98887.50;;;8.02;66.62
28588;BME280;15787;49.662;10.162;2024-03-08T09:45:16;98883.81;;;8.39;66.74
28588;BME280;15787;49.662;10.162;2024-03-08T09:47:49;98877.41;;;7.55;66.98
28588;BME280;15787;49.662;10.162;2024-03-08T09:50:24;98870.06;;;7.98;67.32
28588;BME280;15787;49.662;10.162;2024-03-08T09:52:59;98863.19;;;8.37;66.49
28588;BME280;15787;49.662;10.162;2024-03-08T09:55:36;98871.06;;;7.85;65.00
28588;BME280;15787;49.662;10.162;2024-03-08T09:58:15;98871.47;;;7.83;66.68
28588;BME280;15787;49.662;10.162;2024-03-08T10:01:14;98861.59;;;8.09;65.37
28588;BME280;15787;49.662;10.162;2024-03-08T10:03:47;98857.31;;;8.81;65.38
28588;BME280;15787;49.662;10.162;2024-03-08T10:06:23;98852.66;;;8.51;64.36
28588;BME280;15787;49.662;10.162;2024-03-08T10:08:57;98846.22;;;8.77;63.94
28588;BME280;15787;49.662;10.162;2024-03-08T10:11:31;98849.25;;;8.40;64.59
28588;BME280;15787;49.662;10.162;2024-03-08T10:14:04;98843.44;;;8.01;64.52
28588;BME280;15787;49.662;10.162;2024-03-08T10:16:39;98844.56;;;7.77;65.03
28588;BME280;15787;49.662;10.162;2024-03-08T10:19:13;98840.06;;;8.43;65.04
28588;BME280;15787;49.662;10.162;2024-03-08T10:21:52;98838.63;;;8.05;64.13
28588;BME280;15787;49.662;10.162;2024-03-08T10:24:28;98836.72;;;8.52;64.11
28588;BME280;15787;49.662;10.162;2024-03-08T10:27:02;98835.69;;;8.42;63.07
28588;BME280;15787;49.662;10.162;2024-03-08T10:29:36;98833.75;;;8.39;63.01
28588;BME280;15787;49.662;10.162;2024-03-08T10:32:11;98831.91;;;8.79;62.86
28588;BME280;15787;49.662;10.162;2024-03-08T10:34:45;98824.53;;;8.92;62.26
28588;BME280;15787;49.662;10.162;2024-03-08T10:37:21;98835.00;;;9.47;62.19
28588;BME280;15787;49.662;10.162;2024-03-08T10:40:02;98827.31;;;8.92;61.85
28588;BME280;15787;49.662;10.162;2024-03-08T10:42:51;98823.47;;;9.65;61.58
28588;BME280;15787;49.662;10.162;2024-03-08T10:45:35;98811.38;;;10.27;62.18
28588;BME280;15787;49.662;10.162;2024-03-08T10:48:23;98816.19;;;9.12;60.77
28588;BME280;15787;49.662;10.162;2024-03-08T10:51:02;98814.44;;;10.64;60.29
28588;BME280;15787;49.662;10.162;2024-03-08T10:53:38;98810.59;;;10.42;59.99
28588;BME280;15787;49.662;10.162;2024-03-08T10:56:13;98811.50;;;10.20;60.47
28588;BME280;15787;49.662;10.162;2024-03-08T10:58:47;98806.81;;;10.33;58.74
28588;BME280;15787;49.662;10.162;2024-03-08T11:01:21;98800.59;;;10.90;60.11
28588;BME280;15787;49.662;10.162;2024-03-08T11:03:56;98790.81;;;10.98;59.60
28588;BME280;15787;49.662;10.162;2024-03-08T11:06:31;98793.34;;;10.92;59.27
28588;BME280;15787;49.662;10.162;2024-03-08T11:09:31;98788.22;;;11.19;59.16
28588;BME280;15787;49.662;10.162;2024-03-08T11:12:25;98786.19;;;10.91;59.23
28588;BME280;15787;49.662;10.162;2024-03-08T11:15:03;98778.19;;;11.34;59.08
28588;BME280;15787;49.662;10.162;2024-03-08T11:17:47;98778.16;;;11.22;58.29
28588;BME280;15787;49.662;10.162;2024-03-08T11:20:23;98766.69;;;11.32;58.94
28588;BME280;15787;49.662;10.162;2024-03-08T11:23:00;98752.97;;;11.51;57.50
28588;BME280;15787;49.662;10.162;2024-03-08T11:25:38;98757.88;;;11.47;57.52
28588;BME280;15787;49.662;10.162;2024-03-08T11:28:18;98752.91;;;10.97;56.81
28588;BME280;15787;49.662;10.162;2024-03-08T11:31:24;98748.47;;;10.38;56.94
28588;BME280;15787;49.662;10.162;2024-03-08T11:33:58;98738.03;;;11.16;57.47
28588;BME280;15787;49.662;10.162;2024-03-08T11:36:34;98741.19;;;10.73;56.34
28588;BME280;15787;49.662;10.162;2024-03-08T11:39:09;98730.16;;;10.53;56.45
28588;BME280;15787;49.662;10.162;2024-03-08T11:41:48;98716.19;;;11.52;56.40
28588;BME280;15787;49.662;10.162;2024-03-08T11:44:21;98716.88;;;11.56;55.90
28588;BME280;15787;49.662;10.162;2024-03-08T11:46:56;98718.13;;;11.93;53.93
28588;BME280;15787;49.662;10.162;2024-03-08T11:49:31;98714.47;;;12.55;53.96
28588;BME280;15787;49.662;10.162;2024-03-08T11:52:10;98704.47;;;12.20;52.97
28588;BME280;15787;49.662;10.162;2024-03-08T11:54:51;98724.50;;;11.93;52.28
28588;BME280;15787;49.662;10.162;2024-03-08T11:57:27;98719.66;;;11.02;52.21
28588;BME280;15787;49.662;10.162;2024-03-08T12:00:01;98709.16;;;10.77;52.44
28588;BME280;15787;49.662;10.162;2024-03-08T12:02:40;98703.75;;;10.99;52.51
28588;BME280;15787;49.662;10.162;2024-03-08T12:05:15;98692.06;;;11.17;52.47
28588;BME280;15787;49.662;10.162;2024-03-08T12:07:56;98686.94;;;11.82;53.34
28588;BME280;15787;49.662;10.162;2024-03-08T12:10:29;98685.78;;;11.54;51.66
28588;BME280;15787;49.662;10.162;2024-03-08T12:13:07;98677.47;;;11.38;51.93
28588;BME280;15787;49.662;10.162;2024-03-08T12:15:45;98684.44;;;11.46;52.67
28588;BME280;15787;49.662;10.162;2024-03-08T12:18:18;98671.94;;;11.76;53.10
28588;BME280;15787;49.662;10.162;2024-03-08T12:21:04;98671.00;;;11.54;52.06
28588;BME280;15787;49.662;10.162;2024-03-08T12:23:39;98671.00;;;12.17;52.46
28588;BME280;15787;49.662;10.162;2024-03-08T12:26:15;98665.69;;;11.72;51.92
28588;BME280;15787;49.662;10.162;2024-03-08T12:28:50;98660.09;;;12.65;52.10
28588;BME280;15787;49.662;10.162;2024-03-08T12:31:23;98656.50;;;12.31;50.95
28588;BME280;15787;49.662;10.162;2024-03-08T12:34:00;98646.28;;;11.39;51.60
28588;BME280;15787;49.662;10.162;2024-03-08T12:36:35;98650.00;;;11.62;51.11
28588;BME280;15787;49.662;10.162;2024-03-08T12:39:10;98637.00;;;11.42;50.61
28588;BME280;15787;49.662;10.162;2024-03-08T12:41:44;98635.75;;;12.07;51.03
28588;BME280;15787;49.662;10.162;2024-03-08T12:44:20;98626.97;;;12.51;50.15
28588;BME280;15787;49.662;10.162;2024-03-08T12:46:54;98628.34;;;12.13;49.59
28588;BME280;15787;49.662;10.162;2024-03-08T12:49:31;98634.03;;;12.78;50.21
28588;BME280;15787;49.662;10.162;2024-03-08T12:52:10;98616.34;;;12.25;49.06
28588;BME280;15787;49.662;10.162;2024-03-08T12:54:47;98613.94;;;12.36;49.33
28588;BME280;15787;49.662;10.162;2024-03-08T12:57:21;98613.38;;;12.62;49.47
28588;BME280;15787;49.662;10.162;2024-03-08T12:59:56;98606.41;;;12.45;49.33
28588;BME280;15787;49.662;10.162;2024-03-08T13:02:30;98610.66;;;12.03;49.09
28588;BME280;15787;49.662;10.162;2024-03-08T13:05:04;98598.06;;;12.33;49.82
28588;BME280;15787;49.662;10.162;2024-03-08T13:07:38;98601.41;;;12.40;49.18
28588;BME280;15787;49.662;10.162;2024-03-08T13:10:12;98583.94;;;12.80;49.33
28588;BME280;15787;49.662;10.162;2024-03-08T13:12:47;98577.38;;;13.04;48.52
28588;BME280;15787;49.662;10.162;2024-03-08T13:15:26;98576.28;;;13.23;48.50
28588;BME280;15787;49.662;10.162;2024-03-08T13:18:01;98586.28;;;12.59;48.59
28588;BME280;15787;49.662;10.162;2024-03-08T13:20:35;98575.81;;;13.25;49.85
28588;BME280;15787;49.662;10.162;2024-03-08T13:23:19;98582.25;;;13.35;48.58
28588;BME280;15787;49.662;10.162;2024-03-08T13:25:53;98577.59;;;13.10;47.35
28588;BME280;15787;49.662;10.162;2024-03-08T13:28:30;98566.31;;;13.62;48.64
28588;BME280;15787;49.662;10.162;2024-03-08T13:31:10;98570.34;;;13.70;47.47
28588;BME280;15787;49.662;10.162;2024-03-08T13:33:45;98560.94;;;14.13;46.67
28588;BME280;15787;49.662;10.162;2024-03-08T13:36:19;98564.59;;;13.74;46.51
28588;BME280;15787;49.662;10.162;2024-03-08T13:38:53;98558.63;;;13.54;46.57
28588;BME280;15787;49.662;10.162;2024-03-08T13:41:27;98551.13;;;13.42;46.79